sensor_id;sensor_type;location;lat;lon;timestamp;P1;durP1;ratioP1;P2;durP2;ratioP2
46014;SDS011;36844;51.898;-0.874;2024-03-02T00:01:19;1.65;;;1.05;;
46014;SDS011;36844;51.898;-0.874;2024-03-02T00:03:44;0.38;;;0.38;;
46014;SDS011;36844;51.898;-0.874;2024-03-02T00:06:09;1.48;;;0.52;;
46014;SDS011;36844;51.898;-0.874;2024-03-02T00:08:35;0.95;;;0.60;;
46014;SDS011;36844;51.898;-0.874;2024-03-02T00:11:00;0.60;;;0.55;;
46014;SDS011;36844;51.898;-0.874;2024-03-02T00:13:27;0.75;;;0.50;;
46014;SDS011;36844;51.898;-0.874;2024-03-02T00:15:55;1.15;;;0.70;;
46014;SDS011;36844;51.898;-0.874;2024-03-02T00:18:26;0.47;;;0.30;;
46014;SDS011;36844;51.898;-0.874;2024-03-02T00:20:55;0.68;;;0.47;;
46014;SDS011;36844;51.898;-0.874;2024-03-02T00:23:24;1.55;;;0.45;;
46014;SDS011;36844;51.898;-0.874;2024-03-02T00:25:54;1.65;;;0.75;;
46014;SDS011;36844;51.898;-0.874;2024-03-02T00:28:31;0.73;;;0.38;;
46014;SDS011;36844;51.898;-0.874;2024-03-02T00:31:02;0.82;;;0.60;;
46014;SDS011;36844;51.898;-0.874;2024-03-02T00:33:35;0.73;;;0.43;;
46014;SDS011;36844;51.898;-0.874;2024-03-02T00:36:03;3.05;;;1.00;;
46014;SDS011;36844;51.898;-0.874;2024-03-02T00:38:30;0.63;;;0.50;;
46014;SDS011;36844;51.898;-0.874;2024-03-02T00:40:56;1.45;;;0.75;;
46014;SDS011;36844;51.898;-0.874;2024-03-02T00:45:49;0.98;;;0.52;;
46014;SDS011;36844;51.898;-0.874;2024-03-02T00:48:15;1.30;;;0.40;;
46014;SDS011;36844;51.898;-0.874;2024-03-02T00:50:41;0.80;;;0.32;;
46014;SDS011;36844;51.898;-0.874;2024-03-02T00:53:09;0.85;;;0.40;;
46014;SDS011;36844;51.898;-0.874;2024-03-02T00:55:36;1.58;;;0.40;;
46014;SDS011;36844;51.898;-0.874;2024-03-02T00:58:02;0.43;;;0.40;;
46014;SDS011;36844;51.898;-0.874;2024-03-02T01:00:27;0.70;;;0.50;;
46014;SDS011;36844;51.898;-0.874;2024-03-02T01:02:53;0.82;;;0.50;;
46014;SDS011;36844;51.898;-0.874;2024-03-02T01:05:18;0.55;;;0.38;;
46014;SDS011;36844;51.898;-0.874;2024-03-02T01:07:43;1.08;;;0.43;;
46014;SDS011;36844;51.898;-0.874;2024-03-02T01:10:09;1.45;;;0.40;;
46014;SDS011;36844;51.898;-0.874;2024-03-02T01:12:34;0.70;;;0.43;;
46014;SDS011;36844;51.898;-0.874;2024-03-02T01:15:00;0.65;;;0.50;;
46014;SDS011;36844;51.898;-0.874;2024-03-02T01:17:25;1.13;;;0.50;;
46014;SDS011;36844;51.898;-0.874;2024-03-02T01:19:51;0.40;;;0.30;;
46014;SDS011;36844;51.898;-0.874;2024-03-02T01:22:16;0.68;;;0.40;;
46014;SDS011;36844;51.898;-0.874;2024-03-02T01:24:42;0.50;;;0.38;;
46014;SDS011;36844;51.898;-0.874;2024-03-02T01:27:08;0.75;;;0.30;;
46014;SDS011;36844;51.898;-0.874;2024-03-02T01:29:33;0.35;;;0.30;;
46014;SDS011;36844;51.898;-0.874;2024-03-02T01:31:58;0.43;;;0.40;;
46014;SDS011;36844;51.898;-0.874;2024-03-02T01:34:24;0.60;;;0.30;;
46014;SDS011;36844;51.898;-0.874;2024-03-02T01:36:50;0.75;;;0.40;;
46014;SDS011;36844;51.898;-0.874;2024-03-02T01:39:15;0.70;;;0.47;;
46014;SDS011;36844;51.898;-0.874;2024-03-02T01:41:40;1.05;;;0.40;;
46014;SDS011;36844;51.898;-0.874;2024-03-02T01:44:05;0.60;;;0.45;;
46014;SDS011;36844;51.898;-0.874;2024-03-02T01:46:31;1.10;;;0.40;;
46014;SDS011;36844;51.898;-0.874;2024-03-02T01:48:57;0.60;;;0.30;;
46014;SDS011;36844;51.898;-0.874;2024-03-02T01:51:22;0.70;;;0.45;;
46014;SDS011;36844;51.898;-0.874;2024-03-02T01:53:48;0.85;;;0.35;;
46014;SDS011;36844;51.898;-0.874;2024-03-02T01:56:13;1.30;;;0.30;;
46014;SDS011;36844;51.898;-0.874;2024-03-02T01:58:38;0.52;;;0.30;;
46014;SDS011;36844;51.898;-0.874;2024-03-02T02:01:04;0.63;;;0.40;;
46014;SDS011;36844;51.898;-0.874;2024-03-02T02:03:29;1.20;;;0.80;;
46014;SDS011;36844;51.898;-0.874;2024-03-02T02:05:54;0.38;;;0.30;;
46014;SDS011;36844;51.898;-0.874;2024-03-02T02:08:20;2.30;;;0.70;;
46014;SDS011;36844;51.898;-0.874;2024-03-02T02:10:45;0.22;;;0.20;;
46014;SDS011;36844;51.898;-0.874;2024-03-02T02:13:10;0.85;;;0.43;;
46014;SDS011;36844;51.898;-0.874;2024-03-02T02:15:36;0.30;;;0.30;;
46014;SDS011;36844;51.898;-0.874;2024-03-02T02:18:01;0.40;;;0.40;;
46014;SDS011;36844;51.898;-0.874;2024-03-02T02:20:28;0.35;;;0.30;;
46014;SDS011;36844;51.898;-0.874;2024-03-02T02:22:57;0.63;;;0.30;;
46014;SDS011;36844;51.898;-0.874;2024-03-02T02:25:26;0.43;;;0.20;;
46014;SDS011;36844;51.898;-0.874;2024-03-02T02:27:52;0.43;;;0.30;;
46014;SDS011;36844;51.898;-0.874;2024-03-02T02:30:22;0.90;;;0.20;;
46014;SDS011;36844;51.898;-0.874;2024-03-02T02:32:49;1.50;;;0.40;;
46014;SDS011;36844;51.898;-0.874;2024-03-02T02:35:14;0.22;;;0.20;;
46014;SDS011;36844;51.898;-0.874;2024-03-02T02:37:40;0.25;;;0.20;;
46014;SDS011;36844;51.898;-0.874;2024-03-02T02:40:06;0.63;;;0.32;;
46014;SDS011;36844;51.898;-0.874;2024-03-02T02:42:32;0.80;;;0.30;;
46014;SDS011;36844;51.898;-0.874;2024-03-02T02:44:57;0.88;;;0.28;;
46014;SDS011;36844;51.898;-0.874;2024-03-02T02:47:22;0.45;;;0.20;;
46014;SDS011;36844;51.898;-0.874;2024-03-02T02:49:48;1.67;;;0.73;;
46014;SDS011;36844;51.898;-0.874;2024-03-02T02:52:13;2.10;;;0.52;;
46014;SDS011;36844;51.898;-0.874;2024-03-02T02:54:38;1.08;;;0.38;;
46014;SDS011;36844;51.898;-0.874;2024-03-02T02:57:04;0.70;;;0.40;;
46014;SDS011;36844;51.898;-0.874;2024-03-02T02:59:29;1.98;;;0.40;;
46014;SDS011;36844;51.898;-0.874;2024-03-02T03:01:54;0.25;;;0.20;;
46014;SDS011;36844;51.898;-0.874;2024-03-02T03:04:20;0.52;;;0.47;;
46014;SDS011;36844;51.898;-0.874;2024-03-02T03:06:45;0.60;;;0.38;;
46014;SDS011;36844;51.898;-0.874;2024-03-02T03:09:11;0.35;;;0.35;;
46014;SDS011;36844;51.898;-0.874;2024-03-02T03:11:36;0.45;;;0.40;;
46014;SDS011;36844;51.898;-0.874;2024-03-02T03:14:02;0.50;;;0.30;;
46014;SDS011;36844;51.898;-0.874;2024-03-02T03:16:28;0.70;;;0.50;;
46014;SDS011;36844;51.898;-0.874;2024-03-02T03:18:53;0.70;;;0.32;;
46014;SDS011;36844;51.898;-0.874;2024-03-02T03:21:18;0.40;;;0.38;;
46014;SDS011;36844;51.898;-0.874;2024-03-02T03:23:44;1.02;;;0.30;;
46014;SDS011;36844;51.898;-0.874;2024-03-02T03:26:09;0.75;;;0.25;;
46014;SDS011;36844;51.898;-0.874;2024-03-02T03:28:34;0.25;;;0.25;;
46014;SDS011;36844;51.898;-0.874;2024-03-02T03:31:00;0.10;;;0.10;;
46014;SDS011;36844;51.898;-0.874;2024-03-02T03:33:25;0.45;;;0.30;;
46014;SDS011;36844;51.898;-0.874;2024-03-02T03:35:50;0.15;;;0.13;;
46014;SDS011;36844;51.898;-0.874;2024-03-02T03:38:15;0.90;;;0.55;;
46014;SDS011;36844;51.898;-0.874;2024-03-02T03:40:41;1.08;;;0.30;;
46014;SDS011;36844;51.898;-0.874;2024-03-02T03:43:06;0.80;;;0.30;;
46014;SDS011;36844;51.898;-0.874;2024-03-02T03:45:32;0.43;;;0.40;;
46014;SDS011;36844;51.898;-0.874;2024-03-02T03:47:57;1.17;;;0.22;;
46014;SDS011;36844;51.898;-0.874;2024-03-02T03:50:22;0.77;;;0.30;;
46014;SDS011;36844;51.898;-0.874;2024-03-02T03:52:48;0.10;;;0.10;;
46014;SDS011;36844;51.898;-0.874;2024-03-02T03:55:13;0.47;;;0.43;;
46014;SDS011;36844;51.898;-0.874;2024-03-02T03:57:38;1.15;;;0.30;;
46014;SDS011;36844;51.898;-0.874;2024-03-02T04:00:04;0.65;;;0.40;;
46014;SDS011;36844;51.898;-0.874;2024-03-02T04:02:30;0.73;;;0.35;;
46014;SDS011;36844;51.898;-0.874;2024-03-02T04:04:55;0.47;;;0.30;;
46014;SDS011;36844;51.898;-0.874;2024-03-02T04:07:20;0.75;;;0.22;;
46014;SDS011;36844;51.898;-0.874;2024-03-02T04:09:45;0.73;;;0.47;;
46014;SDS011;36844;51.898;-0.874;2024-03-02T04:12:11;0.38;;;0.30;;
46014;SDS011;36844;51.898;-0.874;2024-03-02T04:14:38;0.20;;;0.17;;
46014;SDS011;36844;51.898;-0.874;2024-03-02T04:17:03;0.17;;;0.17;;
46014;SDS011;36844;51.898;-0.874;2024-03-02T04:19:28;0.30;;;0.20;;
46014;SDS011;36844;51.898;-0.874;2024-03-02T04:21:54;0.20;;;0.20;;
46014;SDS011;36844;51.898;-0.874;2024-03-02T04:24:19;0.10;;;0.10;;
46014;SDS011;36844;51.898;-0.874;2024-03-02T04:26:44;0.73;;;0.45;;
46014;SDS011;36844;51.898;-0.874;2024-03-02T04:29:10;0.60;;;0.30;;
46014;SDS011;36844;51.898;-0.874;2024-03-02T04:31:35;0.20;;;0.10;;
46014;SDS011;36844;51.898;-0.874;2024-03-02T04:34:00;0.38;;;0.20;;
46014;SDS011;36844;51.898;-0.874;2024-03-02T04:36:25;1.30;;;0.45;;
46014;SDS011;36844;51.898;-0.874;2024-03-02T04:38:51;0.10;;;0.10;;
46014;SDS011;36844;51.898;-0.874;2024-03-02T04:41:16;0.10;;;0.10;;
46014;SDS011;36844;51.898;-0.874;2024-03-02T04:43:42;0.30;;;0.20;;
46014;SDS011;36844;51.898;-0.874;2024-03-02T04:46:07;0.30;;;0.10;;
46014;SDS011;36844;51.898;-0.874;2024-03-02T04:48:32;0.57;;;0.30;;
46014;SDS011;36844;51.898;-0.874;2024-03-02T04:50:58;0.50;;;0.20;;
46014;SDS011;36844;51.898;-0.874;2024-03-02T04:53:23;0.20;;;0.20;;
46014;SDS011;36844;51.898;-0.874;2024-03-02T04:55:49;1.02;;;0.15;;
46014;SDS011;36844;51.898;-0.874;2024-03-02T04:58:43;0.28;;;0.20;;
46014;SDS011;36844;51.898;-0.874;2024-03-02T05:01:08;1.45;;;0.20;;
46014;SDS011;36844;51.898;-0.874;2024-03-02T05:03:34;1.30;;;0.47;;
46014;SDS011;36844;51.898;-0.874;2024-03-02T05:05:59;0.65;;;0.20;;
46014;SDS011;36844;51.898;-0.874;2024-03-02T05:08:25;0.10;;;0.10;;
46014;SDS011;36844;51.898;-0.874;2024-03-02T05:10:50;0.20;;;0.20;;
46014;SDS011;36844;51.898;-0.874;2024-03-02T05:13:16;0.85;;;0.10;;
46014;SDS011;36844;51.898;-0.874;2024-03-02T05:15:42;0.30;;;0.30;;
46014;SDS011;36844;51.898;-0.874;2024-03-02T05:18:08;0.70;;;0.20;;
46014;SDS011;36844;51.898;-0.874;2024-03-02T05:20:33;0.73;;;0.30;;
46014;SDS011;36844;51.898;-0.874;2024-03-02T05:22:59;0.60;;;0.22;;
46014;SDS011;36844;51.898;-0.874;2024-03-02T05:25:24;0.22;;;0.13;;
46014;SDS011;36844;51.898;-0.874;2024-03-02T05:27:50;0.17;;;0.10;;
46014;SDS011;36844;51.898;-0.874;2024-03-02T05:30:15;1.02;;;0.20;;
46014;SDS011;36844;51.898;-0.874;2024-03-02T05:32:40;0.22;;;0.20;;
46014;SDS011;36844;51.898;-0.874;2024-03-02T05:35:06;0.45;;;0.22;;
46014;SDS011;36844;51.898;-0.874;2024-03-02T05:37:32;0.45;;;0.28;;
46014;SDS011;36844;51.898;-0.874;2024-03-02T05:39:58;0.40;;;0.13;;
46014;SDS011;36844;51.898;-0.874;2024-03-02T05:42:24;0.45;;;0.40;;
46014;SDS011;36844;51.898;-0.874;2024-03-02T05:44:49;0.50;;;0.30;;
46014;SDS011;36844;51.898;-0.874;2024-03-02T05:47:15;0.57;;;0.10;;
46014;SDS011;36844;51.898;-0.874;2024-03-02T05:49:40;0.98;;;0.22;;
46014;SDS011;36844;51.898;-0.874;2024-03-02T05:52:06;0.60;;;0.43;;
46014;SDS011;36844;51.898;-0.874;2024-03-02T05:54:31;12.75;;;0.80;;
46014;SDS011;36844;51.898;-0.874;2024-03-02T05:56:57;1.25;;;0.25;;
46014;SDS011;36844;51.898;-0.874;2024-03-02T05:59:40;0.22;;;0.22;;
46014;SDS011;36844;51.898;-0.874;2024-03-02T06:02:06;3.95;;;0.43;;
46014;SDS011;36844;51.898;-0.874;2024-03-02T06:04:31;2.15;;;0.20;;
46014;SDS011;36844;51.898;-0.874;2024-03-02T06:06:56;2.03;;;0.60;;
46014;SDS011;36844;51.898;-0.874;2024-03-02T06:09:22;0.30;;;0.30;;
46014;SDS011;36844;51.898;-0.874;2024-03-02T06:11:49;3.30;;;0.38;;
46014;SDS011;36844;51.898;-0.874;2024-03-02T06:14:14;1.02;;;0.35;;
46014;SDS011;36844;51.898;-0.874;2024-03-02T06:16:40;0.77;;;0.38;;
46014;SDS011;36844;51.898;-0.874;2024-03-02T06:19:05;1.10;;;0.20;;
46014;SDS011;36844;51.898;-0.874;2024-03-02T06:21:30;1.67;;;0.43;;
46014;SDS011;36844;51.898;-0.874;2024-03-02T06:23:56;0.85;;;0.50;;
46014;SDS011;36844;51.898;-0.874;2024-03-02T06:26:21;1.15;;;0.63;;
46014;SDS011;36844;51.898;-0.874;2024-03-02T06:28:47;3.63;;;0.70;;
46014;SDS011;36844;51.898;-0.874;2024-03-02T06:31:12;1.33;;;0.30;;
46014;SDS011;36844;51.898;-0.874;2024-03-02T06:33:37;0.50;;;0.30;;
46014;SDS011;36844;51.898;-0.874;2024-03-02T06:36:03;1.25;;;0.47;;
46014;SDS011;36844;51.898;-0.874;2024-03-02T06:38:29;1.30;;;0.30;;
46014;SDS011;36844;51.898;-0.874;2024-03-02T06:40:54;0.43;;;0.20;;
46014;SDS011;36844;51.898;-0.874;2024-03-02T06:43:22;0.98;;;0.28;;
46014;SDS011;36844;51.898;-0.874;2024-03-02T06:45:48;1.55;;;0.50;;
46014;SDS011;36844;51.898;-0.874;2024-03-02T06:48:16;0.80;;;0.22;;
46014;SDS011;36844;51.898;-0.874;2024-03-02T06:50:45;0.63;;;0.30;;
46014;SDS011;36844;51.898;-0.874;2024-03-02T06:53:11;0.93;;;0.57;;
46014;SDS011;36844;51.898;-0.874;2024-03-02T06:55:37;0.45;;;0.30;;
46014;SDS011;36844;51.898;-0.874;2024-03-02T06:58:02;1.88;;;0.60;;
46014;SDS011;36844;51.898;-0.874;2024-03-02T07:00:27;2.33;;;0.60;;
46014;SDS011;36844;51.898;-0.874;2024-03-02T07:02:53;1.60;;;0.45;;
46014;SDS011;36844;51.898;-0.874;2024-03-02T07:05:18;0.80;;;0.32;;
46014;SDS011;36844;51.898;-0.874;2024-03-02T07:07:43;1.38;;;0.38;;
46014;SDS011;36844;51.898;-0.874;2024-03-02T07:10:09;0.95;;;0.30;;
46014;SDS011;36844;51.898;-0.874;2024-03-02T07:12:34;3.03;;;0.55;;
46014;SDS011;36844;51.898;-0.874;2024-03-02T07:14:59;0.20;;;0.20;;
46014;SDS011;36844;51.898;-0.874;2024-03-02T07:17:27;0.57;;;0.30;;
46014;SDS011;36844;51.898;-0.874;2024-03-02T07:19:53;2.10;;;0.50;;
46014;SDS011;36844;51.898;-0.874;2024-03-02T07:22:18;0.20;;;0.10;;
46014;SDS011;36844;51.898;-0.874;2024-03-02T07:24:44;0.43;;;0.22;;
46014;SDS011;36844;51.898;-0.874;2024-03-02T07:27:11;0.30;;;0.30;;
46014;SDS011;36844;51.898;-0.874;2024-03-02T07:29:37;3.90;;;0.40;;
46014;SDS011;36844;51.898;-0.874;2024-03-02T07:32:03;1.65;;;0.25;;
46014;SDS011;36844;51.898;-0.874;2024-03-02T07:34:28;0.30;;;0.20;;
46014;SDS011;36844;51.898;-0.874;2024-03-02T07:36:54;0.65;;;0.20;;
46014;SDS011;36844;51.898;-0.874;2024-03-02T07:39:20;2.10;;;0.47;;
46014;SDS011;36844;51.898;-0.874;2024-03-02T07:41:46;0.95;;;0.38;;
46014;SDS011;36844;51.898;-0.874;2024-03-02T07:44:11;0.40;;;0.20;;
46014;SDS011;36844;51.898;-0.874;2024-03-02T07:46:40;0.68;;;0.40;;
46014;SDS011;36844;51.898;-0.874;2024-03-02T07:49:08;0.35;;;0.22;;
46014;SDS011;36844;51.898;-0.874;2024-03-02T07:51:34;0.75;;;0.50;;
46014;SDS011;36844;51.898;-0.874;2024-03-02T07:53:59;0.22;;;0.17;;
46014;SDS011;36844;51.898;-0.874;2024-03-02T07:56:25;0.13;;;0.13;;
46014;SDS011;36844;51.898;-0.874;2024-03-02T07:58:50;0.30;;;0.20;;
46014;SDS011;36844;51.898;-0.874;2024-03-02T08:01:16;0.65;;;0.20;;
46014;SDS011;36844;51.898;-0.874;2024-03-02T08:03:42;0.30;;;0.20;;
46014;SDS011;36844;51.898;-0.874;2024-03-02T08:06:08;0.20;;;0.20;;
46014;SDS011;36844;51.898;-0.874;2024-03-02T08:08:33;0.65;;;0.20;;
46014;SDS011;36844;51.898;-0.874;2024-03-02T08:10:58;0.98;;;0.22;;
46014;SDS011;36844;51.898;-0.874;2024-03-02T08:13:24;0.57;;;0.57;;
46014;SDS011;36844;51.898;-0.874;2024-03-02T08:15:49;0.60;;;0.50;;
46014;SDS011;36844;51.898;-0.874;2024-03-02T08:18:14;0.52;;;0.30;;
46014;SDS011;36844;51.898;-0.874;2024-03-02T08:20:40;1.08;;;0.40;;
46014;SDS011;36844;51.898;-0.874;2024-03-02T08:23:06;0.82;;;0.22;;
46014;SDS011;36844;51.898;-0.874;2024-03-02T08:25:31;0.95;;;0.30;;
46014;SDS011;36844;51.898;-0.874;2024-03-02T08:27:57;1.38;;;0.68;;
46014;SDS011;36844;51.898;-0.874;2024-03-02T08:30:22;0.20;;;0.20;;
46014;SDS011;36844;51.898;-0.874;2024-03-02T08:32:48;1.35;;;0.30;;
46014;SDS011;36844;51.898;-0.874;2024-03-02T08:35:13;2.13;;;0.50;;
46014;SDS011;36844;51.898;-0.874;2024-03-02T08:37:39;2.83;;;0.30;;
46014;SDS011;36844;51.898;-0.874;2024-03-02T08:40:07;1.75;;;0.38;;
46014;SDS011;36844;51.898;-0.874;2024-03-02T08:42:33;0.98;;;0.40;;
46014;SDS011;36844;51.898;-0.874;2024-03-02T08:44:58;1.25;;;0.30;;
46014;SDS011;36844;51.898;-0.874;2024-03-02T08:47:25;0.40;;;0.15;;
46014;SDS011;36844;51.898;-0.874;2024-03-02T08:49:51;1.20;;;0.40;;
46014;SDS011;36844;51.898;-0.874;2024-03-02T08:52:17;1.00;;;0.32;;
46014;SDS011;36844;51.898;-0.874;2024-03-02T08:54:42;1.75;;;0.30;;
46014;SDS011;36844;51.898;-0.874;2024-03-02T08:57:07;0.45;;;0.30;;
46014;SDS011;36844;51.898;-0.874;2024-03-02T08:59:33;1.20;;;0.20;;
46014;SDS011;36844;51.898;-0.874;2024-03-02T09:01:58;5.47;;;0.35;;
46014;SDS011;36844;51.898;-0.874;2024-03-02T09:04:24;0.68;;;0.20;;
46014;SDS011;36844;51.898;-0.874;2024-03-02T09:06:49;1.75;;;0.30;;
46014;SDS011;36844;51.898;-0.874;2024-03-02T09:09:14;0.50;;;0.10;;
46014;SDS011;36844;51.898;-0.874;2024-03-02T09:11:40;1.48;;;0.40;;
46014;SDS011;36844;51.898;-0.874;2024-03-02T09:14:05;2.08;;;0.82;;
46014;SDS011;36844;51.898;-0.874;2024-03-02T09:16:30;4.85;;;1.45;;
46014;SDS011;36844;51.898;-0.874;2024-03-02T09:18:56;4.28;;;1.33;;
46014;SDS011;36844;51.898;-0.874;2024-03-02T09:21:22;6.20;;;1.60;;
46014;SDS011;36844;51.898;-0.874;2024-03-02T09:23:47;4.30;;;1.80;;
46014;SDS011;36844;51.898;-0.874;2024-03-02T09:26:13;5.70;;;1.38;;
46014;SDS011;36844;51.898;-0.874;2024-03-02T09:28:42;5.57;;;1.30;;
46014;SDS011;36844;51.898;-0.874;2024-03-02T09:31:08;12.90;;;2.05;;
46014;SDS011;36844;51.898;-0.874;2024-03-02T09:33:33;6.93;;;1.70;;
46014;SDS011;36844;51.898;-0.874;2024-03-02T09:35:58;8.65;;;1.73;;
46014;SDS011;36844;51.898;-0.874;2024-03-02T09:38:24;4.20;;;1.42;;
46014;SDS011;36844;51.898;-0.874;2024-03-02T09:40:49;5.07;;;1.65;;
46014;SDS011;36844;51.898;-0.874;2024-03-02T09:43:14;3.80;;;1.20;;
46014;SDS011;36844;51.898;-0.874;2024-03-02T09:45:40;5.20;;;1.17;;
46014;SDS011;36844;51.898;-0.874;2024-03-02T09:48:05;2.47;;;1.15;;
46014;SDS011;36844;51.898;-0.874;2024-03-02T09:50:31;2.38;;;0.95;;
46014;SDS011;36844;51.898;-0.874;2024-03-02T09:52:57;3.60;;;1.10;;
46014;SDS011;36844;51.898;-0.874;2024-03-02T09:55:23;4.13;;;1.15;;
46014;SDS011;36844;51.898;-0.874;2024-03-02T09:57:50;4.30;;;1.35;;
46014;SDS011;36844;51.898;-0.874;2024-03-02T10:00:16;5.93;;;1.35;;
46014;SDS011;36844;51.898;-0.874;2024-03-02T10:02:42;6.03;;;1.15;;
46014;SDS011;36844;51.898;-0.874;2024-03-02T10:05:13;5.20;;;0.93;;
46014;SDS011;36844;51.898;-0.874;2024-03-02T10:08:00;2.92;;;1.38;;
46014;SDS011;36844;51.898;-0.874;2024-03-02T10:10:37;7.10;;;1.55;;
46014;SDS011;36844;51.898;-0.874;2024-03-02T10:13:11;5.10;;;1.20;;
46014;SDS011;36844;51.898;-0.874;2024-03-02T10:15:39;4.15;;;1.95;;
46014;SDS011;36844;51.898;-0.874;2024-03-02T10:18:12;2.90;;;0.63;;
46014;SDS011;36844;51.898;-0.874;2024-03-02T10:20:38;4.43;;;1.23;;
46014;SDS011;36844;51.898;-0.874;2024-03-02T10:23:15;6.80;;;1.38;;
46014;SDS011;36844;51.898;-0.874;2024-03-02T10:25:42;2.15;;;0.60;;
46014;SDS011;36844;51.898;-0.874;2024-03-02T10:28:08;1.98;;;0.80;;
46014;SDS011;36844;51.898;-0.874;2024-03-02T10:30:34;1.63;;;0.82;;
46014;SDS011;36844;51.898;-0.874;2024-03-02T10:33:03;3.28;;;0.90;;
46014;SDS011;36844;51.898;-0.874;2024-03-02T10:35:30;1.52;;;0.55;;
46014;SDS011;36844;51.898;-0.874;2024-03-02T10:38:01;2.72;;;0.82;;
46014;SDS011;36844;51.898;-0.874;2024-03-02T10:40:29;2.58;;;0.73;;
46014;SDS011;36844;51.898;-0.874;2024-03-02T10:42:54;1.00;;;0.35;;
46014;SDS011;36844;51.898;-0.874;2024-03-02T10:45:21;0.70;;;0.40;;
46014;SDS011;36844;51.898;-0.874;2024-03-02T10:47:49;1.05;;;0.47;;
46014;SDS011;36844;51.898;-0.874;2024-03-02T10:50:15;2.08;;;0.30;;
46014;SDS011;36844;51.898;-0.874;2024-03-02T10:52:41;2.70;;;0.80;;
46014;SDS011;36844;51.898;-0.874;2024-03-02T10:55:07;0.95;;;0.63;;
46014;SDS011;36844;51.898;-0.874;2024-03-02T10:57:40;1.58;;;0.30;;
46014;SDS011;36844;51.898;-0.874;2024-03-02T11:00:21;1.23;;;0.40;;
46014;SDS011;36844;51.898;-0.874;2024-03-02T11:02:58;0.38;;;0.30;;
46014;SDS011;36844;51.898;-0.874;2024-03-02T11:05:35;1.58;;;0.30;;
46014;SDS011;36844;51.898;-0.874;2024-03-02T11:08:07;0.20;;;0.20;;
46014;SDS011;36844;51.898;-0.874;2024-03-02T11:10:34;1.25;;;0.30;;
46014;SDS011;36844;51.898;-0.874;2024-03-02T11:13:02;2.63;;;0.82;;
46014;SDS011;36844;51.898;-0.874;2024-03-02T11:15:31;1.55;;;0.47;;
46014;SDS011;36844;51.898;-0.874;2024-03-02T11:18:00;1.65;;;0.40;;
46014;SDS011;36844;51.898;-0.874;2024-03-02T11:20:29;0.63;;;0.20;;
46014;SDS011;36844;51.898;-0.874;2024-03-02T11:22:54;0.57;;;0.22;;
46014;SDS011;36844;51.898;-0.874;2024-03-02T11:25:26;0.73;;;0.35;;
46014;SDS011;36844;51.898;-0.874;2024-03-02T11:30:51;0.50;;;0.20;;
46014;SDS011;36844;51.898;-0.874;2024-03-02T11:33:09;0.85;;;0.20;;
46014;SDS011;36844;51.898;-0.874;2024-03-02T11:35:35;0.52;;;0.20;;
46014;SDS011;36844;51.898;-0.874;2024-03-02T11:38:02;4.47;;;0.40;;
46014;SDS011;36844;51.898;-0.874;2024-03-02T11:40:28;1.17;;;0.30;;
46014;SDS011;36844;51.898;-0.874;2024-03-02T11:42:54;0.57;;;0.20;;
46014;SDS011;36844;51.898;-0.874;2024-03-02T11:45:23;0.60;;;0.40;;
46014;SDS011;36844;51.898;-0.874;2024-03-02T11:47:50;0.47;;;0.40;;
46014;SDS011;36844;51.898;-0.874;2024-03-02T11:50:20;0.50;;;0.45;;
46014;SDS011;36844;51.898;-0.874;2024-03-02T11:53:13;1.08;;;0.20;;
46014;SDS011;36844;51.898;-0.874;2024-03-02T11:55:39;0.65;;;0.20;;
46014;SDS011;36844;51.898;-0.874;2024-03-02T11:58:14;0.70;;;0.20;;
46014;SDS011;36844;51.898;-0.874;2024-03-02T12:00:45;0.50;;;0.28;;
46014;SDS011;36844;51.898;-0.874;2024-03-02T12:03:12;0.52;;;0.00;;
46014;SDS011;36844;51.898;-0.874;2024-03-02T12:05:38;0.93;;;0.30;;
46014;SDS011;36844;51.898;-0.874;2024-03-02T12:08:05;0.90;;;0.20;;
46014;SDS011;36844;51.898;-0.874;2024-03-02T12:10:31;0.10;;;0.10;;
46014;SDS011;36844;51.898;-0.874;2024-03-02T12:13:01;0.32;;;0.15;;
46014;SDS011;36844;51.898;-0.874;2024-03-02T12:15:36;0.20;;;0.13;;
46014;SDS011;36844;51.898;-0.874;2024-03-02T12:18:03;0.70;;;0.40;;
46014;SDS011;36844;51.898;-0.874;2024-03-02T12:20:29;0.20;;;0.10;;
46014;SDS011;36844;51.898;-0.874;2024-03-02T12:22:57;1.45;;;0.43;;
46014;SDS011;36844;51.898;-0.874;2024-03-02T12:25:24;0.82;;;0.40;;
46014;SDS011;36844;51.898;-0.874;2024-03-02T12:27:50;1.38;;;0.40;;
46014;SDS011;36844;51.898;-0.874;2024-03-02T12:30:18;1.75;;;0.20;;
46014;SDS011;36844;51.898;-0.874;2024-03-02T12:32:44;0.38;;;0.15;;
46014;SDS011;36844;51.898;-0.874;2024-03-02T12:35:10;0.35;;;0.10;;
46014;SDS011;36844;51.898;-0.874;2024-03-02T12:37:49;0.10;;;0.10;;
46014;SDS011;36844;51.898;-0.874;2024-03-02T12:40:16;0.15;;;0.13;;
46014;SDS011;36844;51.898;-0.874;2024-03-02T12:42:44;0.30;;;0.22;;
46014;SDS011;36844;51.898;-0.874;2024-03-02T12:45:10;0.10;;;0.10;;
46014;SDS011;36844;51.898;-0.874;2024-03-02T12:47:37;0.20;;;0.17;;
46014;SDS011;36844;51.898;-0.874;2024-03-02T12:50:04;0.10;;;0.10;;
46014;SDS011;36844;51.898;-0.874;2024-03-02T12:52:30;0.30;;;0.10;;
46014;SDS011;36844;51.898;-0.874;2024-03-02T12:54:57;0.90;;;0.00;;
46014;SDS011;36844;51.898;-0.874;2024-03-02T12:57:27;1.48;;;0.65;;
46014;SDS011;36844;51.898;-0.874;2024-03-02T12:59:57;0.10;;;0.10;;
46014;SDS011;36844;51.898;-0.874;2024-03-02T13:02:30;0.08;;;0.08;;
46014;SDS011;36844;51.898;-0.874;2024-03-02T13:04:56;0.30;;;0.20;;
46014;SDS011;36844;51.898;-0.874;2024-03-02T13:07:23;0.30;;;0.10;;
46014;SDS011;36844;51.898;-0.874;2024-03-02T13:09:49;0.10;;;0.10;;
46014;SDS011;36844;51.898;-0.874;2024-03-02T13:12:15;1.55;;;0.47;;
46014;SDS011;36844;51.898;-0.874;2024-03-02T13:14:42;0.20;;;0.20;;
46014;SDS011;36844;51.898;-0.874;2024-03-02T13:17:08;0.57;;;0.22;;
46014;SDS011;36844;51.898;-0.874;2024-03-02T13:19:34;0.10;;;0.10;;
46014;SDS011;36844;51.898;-0.874;2024-03-02T13:21:59;0.10;;;0.10;;
46014;SDS011;36844;51.898;-0.874;2024-03-02T13:24:26;0.73;;;0.20;;
46014;SDS011;36844;51.898;-0.874;2024-03-02T13:26:54;0.30;;;0.15;;
46014;SDS011;36844;51.898;-0.874;2024-03-02T13:29:22;0.10;;;0.10;;
46014;SDS011;36844;51.898;-0.874;2024-03-02T13:31:47;0.50;;;0.28;;
46014;SDS011;36844;51.898;-0.874;2024-03-02T13:34:13;0.05;;;0.05;;
46014;SDS011;36844;51.898;-0.874;2024-03-02T13:36:39;0.00;;;0.00;;
46014;SDS011;36844;51.898;-0.874;2024-03-02T13:39:04;5.15;;;0.20;;
46014;SDS011;36844;51.898;-0.874;2024-03-02T13:41:36;0.10;;;0.10;;
46014;SDS011;36844;51.898;-0.874;2024-03-02T13:44:01;0.10;;;0.10;;
46014;SDS011;36844;51.898;-0.874;2024-03-02T13:46:27;0.10;;;0.10;;
46014;SDS011;36844;51.898;-0.874;2024-03-02T13:48:53;0.55;;;0.10;;
46014;SDS011;36844;51.898;-0.874;2024-03-02T13:51:19;0.43;;;0.20;;
46014;SDS011;36844;51.898;-0.874;2024-03-02T13:53:45;0.82;;;0.20;;
46014;SDS011;36844;51.898;-0.874;2024-03-02T13:56:10;3.03;;;0.17;;
46014;SDS011;36844;51.898;-0.874;2024-03-02T13:58:36;0.17;;;0.10;;
46014;SDS011;36844;51.898;-0.874;2024-03-02T14:01:02;0.30;;;0.17;;
46014;SDS011;36844;51.898;-0.874;2024-03-02T14:03:29;0.20;;;0.20;;
46014;SDS011;36844;51.898;-0.874;2024-03-02T14:05:55;2.55;;;0.10;;
46014;SDS011;36844;51.898;-0.874;2024-03-02T14:08:20;0.85;;;0.20;;
46014;SDS011;36844;51.898;-0.874;2024-03-02T14:10:46;0.65;;;0.40;;
46014;SDS011;36844;51.898;-0.874;2024-03-02T14:13:11;0.35;;;0.10;;
46014;SDS011;36844;51.898;-0.874;2024-03-02T14:15:37;0.22;;;0.20;;
46014;SDS011;36844;51.898;-0.874;2024-03-02T14:18:04;0.22;;;0.10;;
46014;SDS011;36844;51.898;-0.874;2024-03-02T14:20:30;0.10;;;0.10;;
46014;SDS011;36844;51.898;-0.874;2024-03-02T14:22:57;0.08;;;0.00;;
46014;SDS011;36844;51.898;-0.874;2024-03-02T14:25:24;0.10;;;0.00;;
46014;SDS011;36844;51.898;-0.874;2024-03-02T14:27:49;0.10;;;0.10;;
46014;SDS011;36844;51.898;-0.874;2024-03-02T14:30:14;0.25;;;0.10;;
46014;SDS011;36844;51.898;-0.874;2024-03-02T14:32:40;0.10;;;0.10;;
46014;SDS011;36844;51.898;-0.874;2024-03-02T14:35:05;0.10;;;0.10;;